createdAt,value
2023-03-21T00:01:52.387Z,73.70
2023-03-21T00:04:20.277Z,74.40
2023-03-21T00:06:48.006Z,73.60
2023-03-21T00:09:17.277Z,73.60
2023-03-21T00:11:45.175Z,74.30
2023-03-21T00:14:14.414Z,74.50
2023-03-21T00:16:45.792Z,75.20
2023-03-21T00:19:14.480Z,75.80
2023-03-21T00:22:05.973Z,75.70
2023-03-21T00:24:32.298Z,76.00
2023-03-21T00:27:21.946Z,76.60
2023-03-21T00:29:49.368Z,77.20
2023-03-21T00:32:17.161Z,78.30
2023-03-21T00:34:59.646Z,77.90
2023-03-21T00:37:28.276Z,78.00
2023-03-21T00:39:57.466Z,78.30
2023-03-21T00:42:26.334Z,78.60
2023-03-21T00:44:54.091Z,78.40
2023-03-21T00:47:24.104Z,78.90
2023-03-21T00:49:53.157Z,78.70
2023-03-21T00:52:34.195Z,79.30
2023-03-21T00:55:09.108Z,79.60
2023-03-21T00:57:39.534Z,80.20
2023-03-21T01:00:09.967Z,80.10
2023-03-21T01:02:37.981Z,80.50
2023-03-21T01:05:06.542Z,81.30
2023-03-21T01:07:34.417Z,80.60
2023-03-21T01:10:02.131Z,81.10
2023-03-21T01:12:31.317Z,81.40
2023-03-21T01:14:59.046Z,81.90
2023-03-21T01:17:26.782Z,81.00
2023-03-21T01:19:55.440Z,81.30
2023-03-21T01:22:24.349Z,81.50
2023-03-21T01:24:58.572Z,81.70
2023-03-21T01:27:28.526Z,81.70
2023-03-21T01:29:58.663Z,81.70
2023-03-21T01:32:26.594Z,82.00
2023-03-21T01:34:54.499Z,82.20
2023-03-21T01:37:22.658Z,82.60
2023-03-21T01:39:50.421Z,82.10
2023-03-21T01:42:18.253Z,82.30
2023-03-21T01:44:59.226Z,82.30
2023-03-21T01:47:27.707Z,82.70
2023-03-21T01:49:57.929Z,83.10
2023-03-21T01:52:37.038Z,83.40
2023-03-21T01:55:11.590Z,83.40
2023-03-21T01:57:58.154Z,84.50
2023-03-21T02:00:34.428Z,83.50
2023-03-21T02:03:20.946Z,84.90
2023-03-21T02:05:57.430Z,84.60
2023-03-21T02:08:38.421Z,84.50
2023-03-21T02:11:08.136Z,85.10
2023-03-21T02:13:36.625Z,85.20
2023-03-21T02:16:13.037Z,85.60
2023-03-21T02:18:48.925Z,85.80
2023-03-21T02:21:52.548Z,87.00
2023-03-21T02:25:01.399Z,87.30
2023-03-21T02:27:36.005Z,86.40
2023-03-21T02:30:51.287Z,87.20
2023-03-21T02:34:07.357Z,88.30
2023-03-21T02:36:49.613Z,87.30
2023-03-21T02:39:26.334Z,88.20
2023-03-21T02:42:03.334Z,88.40
2023-03-21T02:44:36.265Z,87.60
2023-03-21T02:47:10.325Z,88.30
2023-03-21T02:49:44.777Z,88.00
2023-03-21T02:52:28.326Z,88.70
2023-03-21T02:55:05.646Z,88.70
2023-03-21T02:57:42.562Z,88.10
2023-03-21T03:00:17.981Z,89.00
2023-03-21T03:02:47.560Z,89.60
2023-03-21T03:05:22.217Z,89.30
2023-03-21T03:08:11.828Z,90.30
2023-03-21T03:10:48.344Z,89.70
2023-03-21T03:13:34.389Z,89.40
2023-03-21T03:16:13.501Z,89.30
2023-03-21T03:18:49.155Z,90.00
2023-03-21T03:21:22.809Z,89.70
2023-03-21T03:23:56.881Z,90.00
2023-03-21T03:26:29.903Z,90.10
2023-03-21T03:29:01.737Z,90.30
2023-03-21T03:31:34.840Z,90.60
2023-03-21T03:34:08.257Z,90.30
2023-03-21T03:36:41.400Z,90.30
2023-03-21T03:39:13.157Z,90.70
2023-03-21T03:42:12.643Z,91.10
2023-03-21T03:44:34.919Z,90.60
2023-03-21T03:47:06.288Z,91.00
2023-03-21T03:49:40.461Z,91.30
2023-03-21T03:52:14.626Z,91.10
2023-03-21T03:54:46.024Z,90.90
2023-03-21T03:57:14.492Z,90.80
2023-03-21T03:59:44.386Z,91.10
2023-03-21T04:02:12.318Z,91.20
2023-03-21T04:04:41.782Z,90.90
2023-03-21T04:07:09.578Z,90.90
2023-03-21T04:09:44.219Z,90.50
2023-03-21T04:12:14.012Z,90.50
2023-03-21T04:14:47.235Z,91.10
2023-03-21T04:17:16.122Z,90.90
2023-03-21T04:19:45.272Z,90.60
2023-03-21T04:22:13.180Z,90.90
2023-03-21T04:24:41.253Z,90.80
2023-03-21T04:27:09.083Z,90.70
2023-03-21T04:29:38.156Z,91.00
2023-03-21T04:32:16.087Z,91.10
2023-03-21T04:34:50.048Z,91.40
2023-03-21T04:37:18.932Z,91.80
2023-03-21T04:39:47.643Z,91.90
2023-03-21T04:42:16.052Z,91.60
2023-03-21T04:44:45.220Z,91.60
2023-03-21T04:47:15.899Z,91.70
2023-03-21T04:49:43.684Z,91.50
2023-03-21T04:52:11.425Z,91.70
2023-03-21T04:54:39.110Z,92.40
2023-03-21T04:57:07.958Z,92.20
2023-03-21T04:59:36.551Z,92.60
2023-03-21T05:02:05.870Z,92.80
2023-03-21T05:04:33.650Z,92.30
2023-03-21T05:07:01.379Z,92.70
2023-03-21T05:09:29.139Z,93.00
2023-03-21T05:11:56.959Z,92.90
2023-03-21T05:14:26.395Z,93.40
2023-03-21T05:16:57.465Z,93.40
2023-03-21T05:19:34.677Z,93.40
2023-03-21T05:22:04.594Z,93.70
2023-03-21T05:24:33.650Z,93.40
2023-03-21T05:27:03.153Z,94.00
2023-03-21T05:29:31.554Z,94.40
2023-03-21T05:32:00.210Z,94.40
2023-03-21T05:34:30.810Z,94.30
2023-03-21T05:36:58.556Z,94.30
2023-03-21T05:39:26.262Z,95.10
2023-03-21T05:41:54.030Z,94.70
2023-03-21T05:44:21.746Z,95.00
2023-03-21T05:46:49.502Z,95.40
2023-03-21T05:49:17.331Z,95.40
2023-03-21T05:51:46.375Z,95.30
2023-03-21T05:54:16.555Z,95.60
2023-03-21T05:56:44.291Z,95.30
2023-03-21T05:59:12.081Z,95.30
2023-03-21T06:01:39.819Z,95.50
2023-03-21T06:04:07.631Z,95.60
2023-03-21T06:06:35.579Z,95.70
2023-03-21T06:09:05.536Z,95.80
2023-03-21T06:11:35.257Z,96.50
2023-03-21T06:14:03.086Z,96.50
2023-03-21T06:16:31.015Z,95.50
2023-03-21T06:18:58.769Z,95.60
2023-03-21T06:21:26.961Z,95.60
2023-03-21T06:23:54.748Z,95.40
2023-03-21T06:26:24.034Z,95.70
2023-03-21T06:28:51.914Z,95.30
2023-03-21T06:31:22.320Z,94.80
2023-03-21T06:33:50.147Z,94.40
2023-03-21T06:36:18.161Z,93.60
2023-03-21T06:38:46.849Z,93.30
2023-03-21T06:41:15.589Z,92.30
2023-03-21T06:43:45.278Z,92.00
2023-03-21T06:46:13.330Z,91.00
2023-03-21T06:48:44.418Z,90.40
2023-03-21T06:51:13.394Z,88.40
2023-03-21T06:53:41.936Z,88.80
2023-03-21T06:56:10.802Z,89.00
2023-03-21T06:58:38.762Z,89.50
2023-03-21T07:01:08.777Z,88.90
2023-03-21T07:03:37.792Z,89.50
2023-03-21T07:06:06.988Z,90.20
2023-03-21T07:08:34.725Z,89.30
2023-03-21T07:11:02.466Z,89.80
2023-03-21T07:13:30.521Z,90.10
2023-03-21T07:15:58.234Z,90.00
2023-03-21T07:18:27.394Z,89.80
2023-03-21T07:20:55.188Z,88.20
2023-03-21T07:23:25.708Z,87.20
2023-03-21T07:25:54.606Z,84.10
2023-03-21T07:28:23.074Z,80.80
2023-03-21T07:30:54.840Z,76.40
2023-03-21T07:33:23.334Z,71.60
2023-03-21T07:35:52.674Z,70.50
2023-03-21T07:38:21.145Z,69.70
2023-03-21T07:40:49.736Z,71.90
2023-03-21T07:45:47.150Z,74.10
2023-03-21T07:48:17.331Z,74.80
2023-03-21T07:50:45.098Z,74.70
2023-03-21T07:53:14.186Z,74.30
2023-03-21T07:55:41.971Z,73.00
2023-03-21T07:58:09.738Z,70.70
2023-03-21T08:00:37.522Z,70.00
2023-03-21T08:03:05.999Z,69.10
2023-03-21T08:05:37.123Z,67.00
2023-03-21T08:08:06.257Z,66.20
2023-03-21T08:10:35.900Z,66.30
2023-03-21T08:13:04.089Z,66.90
2023-03-21T08:15:31.904Z,67.30
2023-03-21T08:18:00.772Z,66.80
2023-03-21T08:20:28.698Z,65.20
2023-03-21T08:22:56.450Z,61.50
2023-03-21T08:25:24.244Z,60.20
2023-03-21T08:27:53.384Z,59.20
2023-03-21T08:30:23.717Z,59.10
2023-03-21T08:32:51.659Z,60.30
2023-03-21T08:35:20.630Z,61.80
2023-03-21T08:37:48.762Z,60.80
2023-03-21T08:40:18.414Z,60.40
2023-03-21T08:42:46.974Z,60.20
2023-03-21T08:45:17.920Z,62.60
2023-03-21T08:47:46.420Z,63.20
2023-03-21T08:50:17.359Z,64.80
2023-03-21T08:52:45.634Z,66.00
2023-03-21T08:55:14.431Z,66.00
2023-03-21T08:57:42.478Z,68.10
2023-03-21T09:00:15.156Z,68.00
2023-03-21T09:02:48.885Z,68.80
2023-03-21T09:05:19.223Z,68.80
2023-03-21T09:07:49.953Z,68.80
2023-03-21T09:10:22.905Z,68.30
2023-03-21T09:12:55.390Z,67.70
2023-03-21T09:15:26.374Z,68.30
2023-03-21T09:17:59.289Z,67.50
2023-03-21T09:20:33.363Z,67.20
2023-03-21T09:23:03.254Z,66.50
2023-03-21T09:25:34.078Z,66.00
2023-03-21T09:28:05.923Z,67.30
2023-03-21T09:30:37.216Z,67.40
2023-03-21T09:33:13.680Z,67.70
2023-03-21T09:35:43.553Z,68.20
2023-03-21T09:38:13.205Z,68.10
2023-03-21T09:41:00.049Z,66.90
2023-03-21T09:43:44.441Z,67.20
2023-03-21T09:46:21.267Z,68.80
2023-03-21T09:48:59.006Z,69.70
2023-03-21T09:51:32.975Z,69.30
2023-03-21T09:54:07.791Z,67.20
2023-03-21T09:56:40.773Z,65.90
2023-03-21T09:59:10.005Z,65.00
2023-03-21T10:01:45.565Z,64.20
2023-03-21T10:04:18.834Z,64.40
2023-03-21T10:06:54.119Z,63.60
2023-03-21T10:09:24.560Z,62.80
2023-03-21T10:11:57.916Z,63.20
2023-03-21T10:14:31.306Z,62.70
2023-03-21T10:17:01.493Z,63.50
2023-03-21T10:19:30.784Z,64.00
2023-03-21T10:22:02.176Z,63.80
2023-03-21T10:24:34.336Z,63.10
2023-03-21T10:27:03.542Z,61.80
2023-03-21T10:29:36.857Z,61.20
2023-03-21T10:32:05.041Z,61.30
2023-03-21T10:34:38.815Z,60.80
2023-03-21T10:37:07.376Z,60.80
2023-03-21T10:39:38.002Z,59.70
2023-03-21T10:42:06.608Z,60.00
2023-03-21T10:44:35.862Z,60.60
2023-03-21T10:47:06.736Z,61.00
2023-03-21T10:49:56.394Z,61.00
2023-03-21T10:52:29.855Z,60.60
2023-03-21T10:55:10.082Z,61.10
2023-03-21T10:57:38.640Z,62.40
2023-03-21T11:00:18.139Z,61.20
2023-03-21T11:02:50.116Z,61.10
2023-03-21T11:05:24.853Z,61.30
2023-03-21T11:08:01.473Z,61.30
2023-03-21T11:10:32.985Z,60.50
2023-03-21T11:13:06.257Z,60.90
2023-03-21T11:15:42.118Z,61.60
2023-03-21T11:18:16.922Z,62.00
2023-03-21T11:20:51.389Z,61.10
2023-03-21T11:23:20.859Z,60.00
2023-03-21T11:25:50.783Z,60.30
2023-03-21T11:28:21.544Z,61.00
2023-03-21T11:30:55.451Z,60.70
2023-03-21T11:33:26.928Z,60.20
2023-03-21T11:36:04.492Z,60.60
2023-03-21T11:38:34.468Z,62.50
2023-03-21T11:41:03.471Z,62.30
2023-03-21T11:43:33.010Z,62.30
2023-03-21T11:46:06.239Z,61.10
2023-03-21T11:48:37.961Z,62.50
2023-03-21T11:51:15.698Z,62.30
2023-03-21T11:53:49.916Z,62.60
2023-03-21T11:56:26.470Z,61.70
2023-03-21T11:59:10.943Z,60.40
2023-03-21T12:01:47.166Z,60.20
2023-03-21T12:04:23.783Z,60.30
2023-03-21T12:06:57.264Z,59.80
2023-03-21T12:09:34.963Z,59.10
2023-03-21T12:12:30.003Z,58.90
2023-03-21T12:15:15.093Z,58.60
2023-03-21T12:17:52.023Z,58.10
2023-03-21T12:20:40.262Z,57.70
2023-03-21T12:23:30.313Z,56.90
2023-03-21T12:26:07.001Z,57.30
2023-03-21T12:28:45.091Z,57.30
2023-03-21T12:31:20.064Z,57.60
2023-03-21T12:34:02.978Z,56.80
2023-03-21T12:36:48.745Z,56.10
2023-03-21T12:39:28.913Z,54.70
2023-03-21T12:42:10.570Z,54.70
2023-03-21T12:44:41.830Z,54.80
2023-03-21T12:47:13.226Z,55.30
2023-03-21T12:49:47.946Z,55.40
2023-03-21T12:52:22.430Z,55.80
2023-03-21T12:54:56.020Z,55.60
2023-03-21T12:57:28.611Z,55.40
2023-03-21T13:00:01.646Z,55.20
2023-03-21T13:02:33.038Z,55.40
2023-03-21T13:05:07.680Z,56.10
2023-03-21T13:07:39.009Z,56.20
2023-03-21T13:10:15.792Z,56.10
2023-03-21T13:12:51.998Z,56.10
2023-03-21T13:15:44.812Z,55.90
2023-03-21T13:18:18.324Z,55.80
2023-03-21T13:20:49.645Z,56.00
2023-03-21T13:23:19.430Z,56.40
2023-03-21T13:25:50.477Z,56.50
2023-03-21T13:28:21.944Z,56.20
2023-03-21T13:30:51.660Z,55.50
2023-03-21T13:33:25.849Z,55.60
2023-03-21T13:36:05.331Z,55.40
2023-03-21T13:38:34.853Z,55.70
2023-03-21T13:41:09.325Z,56.00
2023-03-21T13:43:43.858Z,56.20
2023-03-21T13:46:13.704Z,56.40
2023-03-21T13:49:03.550Z,56.60
2023-03-21T13:51:46.405Z,56.50
2023-03-21T13:54:24.214Z,56.20
2023-03-21T13:56:59.947Z,56.60
2023-03-21T13:59:41.005Z,57.10
2023-03-21T14:02:33.612Z,56.70
2023-03-21T14:05:05.727Z,56.50
2023-03-21T14:07:36.493Z,57.90
2023-03-21T14:10:07.693Z,58.50
2023-03-21T14:12:41.866Z,59.40
2023-03-21T14:15:18.703Z,59.00
2023-03-21T14:17:54.868Z,59.00
2023-03-21T14:20:24.809Z,59.30
2023-03-21T14:22:52.834Z,59.60
2023-03-21T14:25:24.356Z,59.80
2023-03-21T14:27:55.992Z,60.40
2023-03-21T14:30:27.054Z,60.60
2023-03-21T14:32:57.341Z,59.90
2023-03-21T14:35:26.377Z,60.90
2023-03-21T14:37:54.064Z,61.90
2023-03-21T14:40:24.587Z,63.70
2023-03-21T14:42:54.645Z,65.30
2023-03-21T14:45:24.311Z,68.30
2023-03-21T14:48:00.472Z,69.60
2023-03-21T14:50:37.552Z,70.20
2023-03-21T14:53:06.296Z,70.90
2023-03-21T14:55:34.682Z,72.90
2023-03-21T14:58:06.276Z,74.80
2023-03-21T15:00:35.534Z,75.60
2023-03-21T15:03:03.854Z,76.70
2023-03-21T15:05:33.669Z,76.40
2023-03-21T15:08:03.716Z,77.20
2023-03-21T15:10:32.656Z,77.10
2023-03-21T15:13:04.131Z,77.20
2023-03-21T15:15:33.879Z,78.00
2023-03-21T15:18:06.057Z,79.70
2023-03-21T15:20:37.522Z,79.80
2023-03-21T15:23:09.414Z,81.50
2023-03-21T15:25:38.416Z,83.30
2023-03-21T15:28:07.973Z,84.30
2023-03-21T15:30:36.072Z,83.80
2023-03-21T15:33:09.445Z,84.30
2023-03-21T15:35:40.046Z,85.50
2023-03-21T15:38:08.017Z,86.80
2023-03-21T15:40:36.295Z,87.50
2023-03-21T15:43:08.288Z,87.50
2023-03-21T15:45:48.022Z,88.50
2023-03-21T15:48:16.206Z,87.30
2023-03-21T15:50:50.933Z,85.70
2023-03-21T15:53:20.333Z,87.60
2023-03-21T15:55:51.838Z,88.40
2023-03-21T15:58:23.928Z,88.00
2023-03-21T16:00:55.413Z,87.00
2023-03-21T16:03:25.838Z,88.90
2023-03-21T16:06:05.231Z,90.00
2023-03-21T16:08:35.677Z,88.30
2023-03-21T16:11:16.035Z,89.10
2023-03-21T16:13:45.094Z,89.10
2023-03-21T16:16:17.968Z,89.00
2023-03-21T16:18:46.256Z,88.60
2023-03-21T16:21:15.014Z,87.50
2023-03-21T16:23:42.777Z,87.00
2023-03-21T16:26:14.130Z,86.30
2023-03-21T16:28:41.860Z,83.60
2023-03-21T16:31:15.407Z,84.20
2023-03-21T16:33:43.534Z,85.40
2023-03-21T16:36:15.312Z,84.60
2023-03-21T16:38:43.070Z,84.20
2023-03-21T16:41:12.226Z,84.30
2023-03-21T16:43:43.805Z,85.20
2023-03-21T16:46:15.131Z,84.50
2023-03-21T16:48:43.556Z,85.80
2023-03-21T16:51:14.670Z,86.00
2023-03-21T16:53:42.443Z,86.80
2023-03-21T16:56:15.906Z,87.70
2023-03-21T16:58:44.475Z,88.20
2023-03-21T17:01:15.636Z,90.40
2023-03-21T17:03:43.735Z,91.00
2023-03-21T17:06:15.372Z,90.60
2023-03-21T17:08:43.232Z,90.80
2023-03-21T17:11:12.184Z,91.20
2023-03-21T17:13:40.147Z,90.90
2023-03-21T17:16:08.553Z,90.20
2023-03-21T17:18:37.650Z,90.60
2023-03-21T17:21:13.205Z,91.20
2023-03-21T17:23:41.162Z,90.70
2023-03-21T17:26:10.795Z,90.30
2023-03-21T17:28:39.238Z,90.30
2023-03-21T17:31:14.263Z,90.30
2023-03-21T17:33:43.694Z,90.80
2023-03-21T17:36:15.217Z,91.20
2023-03-21T17:38:45.581Z,90.70
2023-03-21T17:41:14.139Z,90.70
2023-03-21T17:43:41.925Z,91.10
2023-03-21T17:46:13.942Z,91.30
2023-03-21T17:48:43.524Z,91.30
2023-03-21T17:51:14.663Z,91.30
2023-03-21T17:53:42.667Z,91.40
2023-03-21T17:56:15.356Z,90.90
2023-03-21T17:58:43.097Z,90.30
2023-03-21T18:01:11.384Z,90.40
2023-03-21T18:03:39.417Z,90.50
2023-03-21T18:06:15.968Z,90.20
2023-03-21T18:08:43.881Z,90.50
2023-03-21T18:11:12.725Z,90.30
2023-03-21T18:13:40.863Z,89.80
2023-03-21T18:16:11.087Z,89.30
2023-03-21T18:18:39.062Z,89.30
2023-03-21T18:21:10.667Z,88.60
2023-03-21T18:23:38.445Z,88.30
2023-03-21T18:26:07.944Z,87.40
2023-03-21T18:28:39.605Z,87.30
2023-03-21T18:31:14.569Z,86.60
2023-03-21T18:33:46.100Z,86.60
2023-03-21T18:36:24.117Z,86.80
2023-03-21T18:38:52.481Z,86.80
2023-03-21T18:41:22.638Z,86.80
2023-03-21T18:44:13.567Z,87.00
2023-03-21T18:46:40.274Z,86.40
2023-03-21T18:49:53.694Z,86.50
2023-03-21T18:51:58.699Z,86.90
2023-03-21T18:54:27.613Z,87.00
2023-03-21T18:59:44.470Z,86.80
2023-03-21T19:02:14.927Z,87.20
2023-03-21T19:04:42.899Z,86.80
2023-03-21T19:07:12.064Z,87.90
2023-03-21T19:10:01.626Z,87.20
2023-03-21T19:12:28.342Z,87.20
2023-03-21T19:14:56.667Z,87.40
2023-03-21T19:20:13.925Z,87.70
2023-03-21T19:22:43.819Z,88.20
2023-03-21T19:25:12.901Z,89.10
2023-03-21T19:27:41.152Z,89.30
2023-03-21T19:30:15.334Z,90.10
2023-03-21T19:32:44.305Z,90.10
2023-03-21T19:35:13.122Z,90.40
2023-03-21T19:37:41.527Z,90.30
2023-03-21T19:40:11.748Z,90.60
2023-03-21T19:42:40.491Z,91.00
2023-03-21T19:45:09.713Z,91.20
2023-03-21T19:47:37.499Z,90.80
2023-03-21T19:50:45.575Z,90.20
2023-03-21T19:52:53.879Z,90.30
2023-03-21T19:55:23.446Z,90.10
2023-03-21T19:57:52.228Z,89.50
2023-03-21T20:00:21.037Z,90.10
2023-03-21T20:02:48.815Z,89.10
2023-03-21T20:05:19.630Z,88.20
2023-03-21T20:07:47.584Z,88.40
2023-03-21T20:10:15.593Z,88.50
2023-03-21T20:12:44.739Z,88.80
2023-03-21T20:15:19.195Z,89.00
2023-03-21T20:17:49.270Z,88.40
2023-03-21T20:20:18.318Z,88.80
2023-03-21T20:25:40.790Z,88.50
2023-03-21T20:28:17.144Z,88.70
2023-03-21T20:30:53.978Z,88.10
2023-03-21T20:33:22.065Z,87.80
2023-03-21T20:38:39.198Z,88.20
2023-03-21T20:41:07.732Z,88.10
2023-03-21T20:44:24.370Z,87.40
2023-03-21T20:46:24.893Z,87.10
2023-03-21T20:48:52.724Z,86.90
2023-03-21T20:54:08.681Z,86.30
2023-03-21T20:56:36.565Z,87.20
2023-03-21T20:59:17.313Z,87.20
2023-03-21T21:01:51.976Z,87.70
2023-03-21T21:04:20.324Z,88.00
2023-03-21T21:06:48.342Z,88.10
2023-03-21T21:09:16.485Z,88.30
2023-03-21T21:14:35.413Z,89.20
2023-03-21T21:17:22.426Z,89.40
2023-03-21T21:19:51.366Z,90.00
2023-03-21T21:22:19.385Z,90.40
2023-03-21T21:24:47.171Z,90.90
2023-03-21T21:27:14.962Z,91.20
2023-03-21T21:29:47.450Z,91.80
2023-03-21T21:32:16.569Z,91.90
2023-03-21T21:34:44.317Z,92.60
2023-03-21T21:37:12.168Z,93.30
2023-03-21T21:39:41.879Z,93.90
2023-03-21T21:42:09.648Z,94.50
2023-03-21T21:44:39.598Z,94.70
2023-03-21T21:47:09.067Z,94.90
2023-03-21T21:49:37.706Z,95.20
2023-03-21T21:52:05.751Z,95.30
2023-03-21T21:54:34.881Z,95.30
2023-03-21T21:57:02.852Z,95.60
2023-03-21T21:59:30.939Z,95.80
2023-03-21T22:01:58.861Z,95.90
2023-03-21T22:04:28.506Z,96.10
2023-03-21T22:06:56.379Z,96.00
2023-03-21T22:09:24.292Z,95.70
2023-03-21T22:11:52.091Z,95.70
2023-03-21T22:14:19.881Z,95.30
2023-03-21T22:16:47.782Z,94.90
2023-03-21T22:19:15.562Z,94.60
2023-03-21T22:21:44.621Z,94.60
2023-03-21T22:24:12.487Z,94.40
2023-03-21T22:26:40.550Z,94.20
2023-03-21T22:29:10.419Z,93.70
2023-03-21T22:31:41.726Z,93.80
2023-03-21T22:34:09.613Z,94.10
2023-03-21T22:36:37.300Z,94.00
2023-03-21T22:39:06.583Z,93.80
2023-03-21T22:41:34.323Z,93.80
2023-03-21T22:44:02.083Z,93.80
2023-03-21T22:46:29.932Z,93.50
2023-03-21T22:48:57.733Z,93.90
2023-03-21T22:51:25.504Z,93.90
2023-03-21T22:53:53.257Z,93.80
2023-03-21T22:56:22.285Z,93.70
2023-03-21T22:58:50.014Z,94.00
2023-03-21T23:01:17.813Z,93.80
2023-03-21T23:03:45.620Z,93.90
2023-03-21T23:06:13.397Z,93.60
2023-03-21T23:08:41.124Z,93.40
2023-03-21T23:11:10.526Z,93.60
2023-03-21T23:13:41.286Z,93.70
2023-03-21T23:16:09.868Z,93.60
2023-03-21T23:18:38.496Z,93.50
2023-03-21T23:21:12.942Z,93.70
2023-03-21T23:23:43.581Z,93.50
2023-03-21T23:26:12.168Z,93.40
2023-03-21T23:28:41.872Z,93.30
2023-03-21T23:31:11.579Z,93.30
2023-03-21T23:33:40.113Z,93.30
2023-03-21T23:36:09.337Z,92.90
2023-03-21T23:38:37.223Z,93.40
2023-03-21T23:41:07.764Z,92.90
2023-03-21T23:43:35.698Z,92.90
2023-03-21T23:46:05.591Z,92.90
2023-03-21T23:48:33.514Z,92.80
2023-03-21T23:51:01.973Z,92.90
2023-03-21T23:53:29.696Z,93.20
2023-03-21T23:55:58.521Z,93.00
2023-03-21T23:58:28.481Z,93.30
